createdAt,value
2022-08-27T00:00:55.277Z,35.47
2022-08-27T00:03:45.976Z,40.60
2022-08-27T00:06:38.017Z,52.83
2022-08-27T00:09:27.744Z,49.23
2022-08-27T00:12:17.575Z,48.87
2022-08-27T00:15:08.976Z,46.20
2022-08-27T00:18:01.150Z,49.80
2022-08-27T00:20:50.837Z,50.67
2022-08-27T00:23:42.991Z,41.57
2022-08-27T00:26:33.105Z,33.53
2022-08-27T00:29:23.187Z,46.80
2022-08-27T00:32:13.127Z,47.87
2022-08-27T00:35:03.058Z,47.57
2022-08-27T00:37:53.830Z,53.57
2022-08-27T00:40:44.297Z,57.50
2022-08-27T00:43:45.133Z,56.03
2022-08-27T00:46:37.851Z,53.07
2022-08-27T00:49:31.709Z,52.63
2022-08-27T00:52:23.237Z,47.63
2022-08-27T00:55:19.524Z,46.90
2022-08-27T00:58:12.945Z,45.00
2022-08-27T01:01:02.485Z,41.43
2022-08-27T01:03:54.240Z,42.27
2022-08-27T01:06:42.803Z,44.63
2022-08-27T01:09:31.472Z,42.00
2022-08-27T01:12:20.518Z,42.50
2022-08-27T01:15:16.913Z,43.43
2022-08-27T01:18:09.769Z,37.83
2022-08-27T01:21:01.677Z,36.50
2022-08-27T01:23:56.438Z,39.00
2022-08-27T01:26:46.331Z,36.10
2022-08-27T01:29:35.386Z,39.80
2022-08-27T01:32:26.564Z,38.70
2022-08-27T01:35:17.327Z,37.77
2022-08-27T01:38:05.856Z,37.40
2022-08-27T01:40:58.295Z,35.40
2022-08-27T01:43:48.421Z,31.80
2022-08-27T01:46:37.045Z,28.50
2022-08-27T01:49:25.660Z,23.97
2022-08-27T01:52:15.944Z,27.27
2022-08-27T01:55:06.452Z,26.30
2022-08-27T01:57:56.064Z,33.87
2022-08-27T02:00:48.503Z,31.77
2022-08-27T02:03:43.468Z,32.63
2022-08-27T02:06:31.989Z,33.03
2022-08-27T02:09:20.876Z,34.70
2022-08-27T02:12:09.866Z,31.50
2022-08-27T02:14:58.354Z,31.90
2022-08-27T02:17:48.739Z,38.97
2022-08-27T02:20:37.649Z,31.10
2022-08-27T02:23:26.191Z,33.07
2022-08-27T02:26:14.743Z,33.40
2022-08-27T02:29:03.322Z,33.13
2022-08-27T02:31:51.907Z,33.80
2022-08-27T02:34:41.801Z,33.03
2022-08-27T02:37:30.326Z,34.70
2022-08-27T02:40:21.249Z,33.43
2022-08-27T02:43:10.023Z,30.77
2022-08-27T02:46:04.608Z,29.67
2022-08-27T02:48:53.117Z,32.80
2022-08-27T02:51:43.018Z,32.63
2022-08-27T02:54:32.322Z,31.33
2022-08-27T02:57:21.097Z,31.63
2022-08-27T03:00:14.138Z,32.47
2022-08-27T03:03:03.288Z,32.37
2022-08-27T03:05:52.590Z,33.57
2022-08-27T03:08:52.642Z,30.13
2022-08-27T03:11:42.766Z,30.07
2022-08-27T03:14:31.318Z,30.20
2022-08-27T03:17:38.368Z,31.67
2022-08-27T03:20:27.151Z,31.03
2022-08-27T03:23:16.539Z,30.50
2022-08-27T03:26:10.543Z,31.47
2022-08-27T03:28:59.821Z,31.43
2022-08-27T03:31:48.368Z,29.57
2022-08-27T03:34:36.952Z,33.33
2022-08-27T03:37:25.984Z,30.33
2022-08-27T03:40:15.134Z,32.90
2022-08-27T03:43:05.297Z,30.30
2022-08-27T03:46:01.063Z,31.37
2022-08-27T03:48:52.226Z,34.00
2022-08-27T03:51:46.302Z,32.03
2022-08-27T03:54:35.707Z,33.40
2022-08-27T03:57:24.221Z,31.87
2022-08-27T04:00:14.975Z,29.33
2022-08-27T04:03:05.234Z,28.73
2022-08-27T04:05:54.321Z,27.93
2022-08-27T04:08:42.858Z,32.37
2022-08-27T04:11:31.548Z,30.87
2022-08-27T04:14:27.053Z,34.20
2022-08-27T04:17:17.488Z,31.83
2022-08-27T04:20:34.160Z,31.40
2022-08-27T04:23:16.875Z,32.90
2022-08-27T04:26:06.273Z,34.73
2022-08-27T04:28:55.198Z,32.77
2022-08-27T04:31:43.831Z,34.70
2022-08-27T04:34:34.127Z,34.17
2022-08-27T04:37:23.305Z,31.63
2022-08-27T04:40:13.182Z,35.03
2022-08-27T04:43:01.751Z,31.40
2022-08-27T04:45:50.662Z,35.47
2022-08-27T04:48:39.459Z,31.73
2022-08-27T04:51:29.677Z,34.97
2022-08-27T04:54:19.247Z,32.13
2022-08-27T04:57:14.587Z,33.73
2022-08-27T05:00:03.367Z,31.67
2022-08-27T05:02:52.040Z,33.63
2022-08-27T05:05:41.923Z,30.97
2022-08-27T05:08:33.092Z,33.70
2022-08-27T05:11:23.083Z,30.27
2022-08-27T05:14:13.829Z,33.37
2022-08-27T05:17:03.620Z,30.20
2022-08-27T05:19:52.142Z,30.73
2022-08-27T05:22:40.665Z,30.97
2022-08-27T05:25:30.728Z,31.57
2022-08-27T05:28:21.987Z,32.43
2022-08-27T05:31:17.600Z,36.00
2022-08-27T05:34:10.282Z,36.13
2022-08-27T05:37:01.760Z,32.63
2022-08-27T05:39:50.298Z,32.47
2022-08-27T05:42:40.205Z,35.30
2022-08-27T05:45:29.042Z,33.40
2022-08-27T05:48:17.897Z,30.63
2022-08-27T05:51:11.652Z,29.77
2022-08-27T05:54:03.671Z,35.27
2022-08-27T05:56:55.395Z,33.97
2022-08-27T06:00:02.815Z,31.57
2022-08-27T06:02:51.569Z,36.73
2022-08-27T06:05:40.548Z,37.37
2022-08-27T06:08:29.205Z,34.80
2022-08-27T06:11:19.356Z,32.33
2022-08-27T06:14:08.914Z,35.63
2022-08-27T06:17:01.034Z,36.47
2022-08-27T06:19:49.608Z,35.07
2022-08-27T06:22:38.150Z,35.43
2022-08-27T06:25:26.721Z,37.13
2022-08-27T06:28:15.279Z,32.90
2022-08-27T06:31:05.251Z,39.33
2022-08-27T06:34:00.690Z,33.37
2022-08-27T06:36:55.679Z,32.47
2022-08-27T06:39:44.230Z,39.07
2022-08-27T06:42:32.751Z,37.00
2022-08-27T06:45:23.430Z,36.93
2022-08-27T06:48:12.195Z,38.70
2022-08-27T06:51:08.598Z,33.40
2022-08-27T06:53:58.907Z,35.57
2022-08-27T06:56:49.390Z,43.50
2022-08-27T06:59:38.819Z,40.00
2022-08-27T07:02:29.309Z,39.27
2022-08-27T07:05:19.218Z,40.60
2022-08-27T07:08:11.360Z,41.17
2022-08-27T07:11:01.592Z,38.33
2022-08-27T07:13:51.267Z,33.20
2022-08-27T07:16:40.888Z,37.13
2022-08-27T07:19:30.339Z,36.57
2022-08-27T07:22:18.852Z,39.87
2022-08-27T07:25:10.721Z,34.87
2022-08-27T07:27:59.995Z,38.63
2022-08-27T07:30:48.557Z,42.97
2022-08-27T07:33:37.322Z,40.93
2022-08-27T07:36:27.049Z,39.30
2022-08-27T07:39:16.711Z,42.20
2022-08-27T07:42:24.547Z,37.43
2022-08-27T07:45:13.052Z,34.87
2022-08-27T07:48:01.835Z,42.13
2022-08-27T07:50:50.485Z,36.90
2022-08-27T07:53:39.100Z,36.37
2022-08-27T07:56:27.696Z,32.50
2022-08-27T07:59:17.633Z,30.07
2022-08-27T08:02:06.420Z,31.00
2022-08-27T08:04:55.003Z,27.87
2022-08-27T08:07:43.943Z,26.93
2022-08-27T08:10:35.427Z,29.33
2022-08-27T08:13:24.419Z,27.67
2022-08-27T08:16:15.178Z,27.03
2022-08-27T08:19:04.562Z,32.70
2022-08-27T08:21:59.502Z,24.90
2022-08-27T08:24:49.969Z,30.97
2022-08-27T08:27:38.972Z,26.30
2022-08-27T08:30:28.711Z,25.37
2022-08-27T08:33:25.428Z,29.43
2022-08-27T08:36:16.020Z,31.73
2022-08-27T08:39:04.811Z,31.90
2022-08-27T08:41:55.938Z,29.40
2022-08-27T08:44:48.536Z,32.90
2022-08-27T08:47:44.148Z,29.90
2022-08-27T08:50:40.787Z,30.87
2022-08-27T08:53:37.978Z,27.93
2022-08-27T08:56:29.718Z,28.10
2022-08-27T08:59:23.571Z,30.37
2022-08-27T09:02:14.346Z,37.20
2022-08-27T09:05:05.386Z,34.80
2022-08-27T09:08:28.519Z,35.60
2022-08-27T09:11:18.091Z,28.47
2022-08-27T09:14:17.238Z,28.80
2022-08-27T09:17:10.754Z,32.47
2022-08-27T09:20:00.339Z,33.03
2022-08-27T09:22:54.907Z,31.33
2022-08-27T09:25:45.522Z,28.33
2022-08-27T09:28:51.607Z,32.47
2022-08-27T09:31:40.907Z,30.03
2022-08-27T09:34:36.053Z,33.80
2022-08-27T09:37:33.886Z,34.93
2022-08-27T09:40:28.945Z,39.70
2022-08-27T09:43:23.808Z,27.60
2022-08-27T09:46:20.423Z,31.90
2022-08-27T09:49:14.287Z,30.43
2022-08-27T09:52:03.162Z,27.13
2022-08-27T09:54:55.652Z,34.43
2022-08-27T09:57:44.267Z,36.20
2022-08-27T10:00:37.929Z,34.83
2022-08-27T10:03:29.997Z,35.33
2022-08-27T10:06:28.199Z,31.83
2022-08-27T10:09:19.342Z,32.70
2022-08-27T10:12:11.304Z,32.17
2022-08-27T10:15:02.056Z,38.47
2022-08-27T10:18:01.618Z,30.00
2022-08-27T10:21:05.607Z,33.33
2022-08-27T10:24:04.278Z,31.57
2022-08-27T10:26:59.870Z,30.83
2022-08-27T10:29:55.121Z,27.93
2022-08-27T10:33:01.195Z,33.13
2022-08-27T10:35:59.475Z,27.93
2022-08-27T10:38:52.796Z,31.27
2022-08-27T10:41:45.419Z,34.10
2022-08-27T10:44:45.906Z,28.10
2022-08-27T10:47:50.017Z,33.40
2022-08-27T10:50:45.136Z,29.83
2022-08-27T10:53:38.739Z,30.77
2022-08-27T10:56:32.658Z,36.33
2022-08-27T10:59:27.523Z,33.67
2022-08-27T11:02:24.144Z,30.23
2022-08-27T11:05:18.458Z,29.60
2022-08-27T11:08:12.600Z,29.87
2022-08-27T11:11:35.151Z,30.87
2022-08-27T11:14:20.945Z,34.20
2022-08-27T11:17:13.075Z,32.93
2022-08-27T11:20:08.137Z,33.43
2022-08-27T11:22:58.416Z,32.70
2022-08-27T11:25:54.139Z,32.17
2022-08-27T11:28:45.723Z,29.40
2022-08-27T11:31:38.186Z,32.43
2022-08-27T11:34:31.519Z,35.67
2022-08-27T11:37:36.784Z,36.00
2022-08-27T11:40:40.245Z,32.37
2022-08-27T11:43:33.769Z,35.70
2022-08-27T11:46:25.197Z,33.87
2022-08-27T11:49:24.522Z,39.87
2022-08-27T11:52:13.973Z,32.37
2022-08-27T11:55:14.546Z,35.13
2022-08-27T11:58:08.604Z,32.60
2022-08-27T12:01:04.268Z,29.77
2022-08-27T12:04:02.135Z,29.10
2022-08-27T12:06:53.087Z,32.30
2022-08-27T12:09:58.636Z,34.70
2022-08-27T12:12:56.939Z,32.93
2022-08-27T12:16:01.057Z,29.93
2022-08-27T12:19:00.347Z,33.77
2022-08-27T12:21:58.918Z,36.30
2022-08-27T12:24:55.902Z,34.77
2022-08-27T12:27:55.186Z,35.83
2022-08-27T12:30:50.139Z,35.47
2022-08-27T12:33:43.271Z,29.50
2022-08-27T12:36:33.542Z,35.23
2022-08-27T12:39:27.950Z,33.47
2022-08-27T12:42:20.271Z,32.10
2022-08-27T12:45:09.319Z,36.80
2022-08-27T12:48:01.408Z,29.20
2022-08-27T12:50:54.475Z,28.17
2022-08-27T12:53:45.311Z,36.60
2022-08-27T12:56:52.329Z,36.80
2022-08-27T13:00:02.019Z,34.30
2022-08-27T13:03:04.650Z,33.60
2022-08-27T13:05:57.433Z,35.93
2022-08-27T13:08:46.994Z,39.40
2022-08-27T13:11:47.126Z,30.27
2022-08-27T13:14:37.979Z,32.60
2022-08-27T13:17:39.302Z,30.20
2022-08-27T13:20:28.119Z,31.30
2022-08-27T13:23:20.527Z,30.33
2022-08-27T13:26:11.284Z,31.10
2022-08-27T13:29:03.305Z,27.10
2022-08-27T13:31:52.563Z,30.00
2022-08-27T13:34:41.658Z,29.27
2022-08-27T13:37:34.736Z,28.00
2022-08-27T13:40:30.636Z,27.63
2022-08-27T13:43:19.501Z,31.17
2022-08-27T13:46:11.565Z,33.63
2022-08-27T13:49:00.818Z,32.47
2022-08-27T13:51:49.851Z,27.37
2022-08-27T13:54:37.490Z,29.73
2022-08-27T13:57:31.164Z,31.10
2022-08-27T14:00:26.507Z,30.90
2022-08-27T14:03:31.467Z,33.50
2022-08-27T14:06:25.355Z,28.93
2022-08-27T14:09:23.126Z,26.93
2022-08-27T14:12:12.160Z,26.47
2022-08-27T14:15:16.785Z,26.30
2022-08-27T14:18:08.972Z,31.77
2022-08-27T14:20:58.959Z,32.07
2022-08-27T14:23:48.655Z,25.67
2022-08-27T14:26:37.423Z,26.47
2022-08-27T14:29:25.989Z,35.63
2022-08-27T14:32:17.003Z,30.23
2022-08-27T14:35:06.367Z,25.80
2022-08-27T14:37:55.540Z,31.27
2022-08-27T14:40:44.524Z,34.30
2022-08-27T14:43:34.571Z,27.30
2022-08-27T14:46:26.765Z,27.70
2022-08-27T14:49:21.993Z,26.53
2022-08-27T14:52:10.707Z,26.93
2022-08-27T14:54:59.351Z,27.77
2022-08-27T14:57:47.910Z,27.40
2022-08-27T15:00:36.509Z,24.53
2022-08-27T15:03:26.098Z,24.47
2022-08-27T15:06:17.308Z,29.27
2022-08-27T15:09:06.438Z,30.50
2022-08-27T15:11:56.989Z,22.50
2022-08-27T15:14:45.562Z,26.80
2022-08-27T15:17:35.521Z,23.07
2022-08-27T15:20:24.349Z,23.70
2022-08-27T15:23:15.719Z,26.20
2022-08-27T15:26:04.382Z,24.83
2022-08-27T15:28:52.911Z,26.37
2022-08-27T15:31:42.101Z,23.03
2022-08-27T15:34:30.980Z,21.53
2022-08-27T15:37:19.737Z,26.97
2022-08-27T15:40:11.667Z,22.70
2022-08-27T15:43:03.119Z,23.57
2022-08-27T15:45:51.789Z,24.87
2022-08-27T15:48:40.488Z,20.10
2022-08-27T15:51:31.301Z,20.83
2022-08-27T15:54:20.108Z,24.37
2022-08-27T15:57:10.131Z,24.13
2022-08-27T15:59:59.018Z,22.57
2022-08-27T16:02:48.145Z,22.87
2022-08-27T16:05:39.858Z,20.43
2022-08-27T16:08:28.667Z,20.33
2022-08-27T16:11:22.900Z,20.90
2022-08-27T16:14:12.981Z,21.10
2022-08-27T16:17:01.709Z,20.07
2022-08-27T16:19:50.418Z,22.57
2022-08-27T16:22:39.625Z,19.23
2022-08-27T16:25:28.345Z,21.43
2022-08-27T16:28:16.912Z,23.03
2022-08-27T16:31:12.006Z,24.07
2022-08-27T16:34:00.904Z,24.40
2022-08-27T16:36:49.495Z,22.90
2022-08-27T16:39:40.696Z,21.40
2022-08-27T16:42:29.392Z,25.67
2022-08-27T16:45:19.793Z,24.83
2022-08-27T16:48:27.320Z,27.67
2022-08-27T16:51:18.579Z,23.13
2022-08-27T16:54:07.725Z,21.40
2022-08-27T16:56:56.647Z,25.23
2022-08-27T16:59:45.194Z,23.13
2022-08-27T17:02:35.004Z,23.87
2022-08-27T17:05:33.874Z,21.43
2022-08-27T17:08:26.207Z,25.20
2022-08-27T17:11:17.222Z,19.87
2022-08-27T17:14:05.944Z,27.23
2022-08-27T17:16:54.817Z,20.70
2022-08-27T17:19:43.433Z,20.27
2022-08-27T17:22:33.735Z,17.83
2022-08-27T17:25:22.262Z,19.80
2022-08-27T17:28:18.515Z,20.67
2022-08-27T17:31:08.151Z,20.00
2022-08-27T17:33:59.398Z,26.80
2022-08-27T17:36:48.455Z,24.00
2022-08-27T17:39:38.423Z,19.83
2022-08-27T17:42:27.240Z,23.60
2022-08-27T17:45:17.175Z,23.57
2022-08-27T17:48:12.186Z,20.77
2022-08-27T17:51:03.916Z,18.53
2022-08-27T17:53:59.769Z,22.30
2022-08-27T17:56:50.689Z,19.07
2022-08-27T17:59:39.226Z,19.47
2022-08-27T18:02:31.484Z,21.80
2022-08-27T18:05:21.311Z,22.07
2022-08-27T18:08:09.834Z,22.60
2022-08-27T18:10:58.765Z,24.47
2022-08-27T18:13:53.414Z,25.07
2022-08-27T18:16:41.803Z,22.83
2022-08-27T18:19:30.311Z,28.70
2022-08-27T18:22:18.823Z,27.90
2022-08-27T18:25:08.093Z,25.57
2022-08-27T18:27:59.298Z,25.80
2022-08-27T18:30:52.348Z,23.10
2022-08-27T18:33:41.178Z,21.47
2022-08-27T18:36:30.297Z,29.83
2022-08-27T18:39:19.115Z,25.20
2022-08-27T18:42:07.796Z,25.40
2022-08-27T18:45:01.477Z,25.00
2022-08-27T18:47:57.287Z,27.53
2022-08-27T18:50:48.404Z,29.17
2022-08-27T18:53:39.770Z,27.90
2022-08-27T18:56:28.404Z,26.20
2022-08-27T18:59:17.586Z,23.80
2022-08-27T19:02:06.338Z,26.27
2022-08-27T19:04:56.346Z,27.03
2022-08-27T19:07:44.901Z,30.60
2022-08-27T19:10:33.672Z,26.00
2022-08-27T19:13:22.296Z,27.37
2022-08-27T19:16:14.291Z,32.57
2022-08-27T19:19:04.429Z,34.33
2022-08-27T19:21:54.772Z,29.63
2022-08-27T19:24:43.363Z,30.43
2022-08-27T19:27:32.167Z,26.97
2022-08-27T19:30:20.957Z,30.07
2022-08-27T19:33:09.543Z,26.63
2022-08-27T19:35:58.497Z,27.30
2022-08-27T19:38:50.901Z,29.10
2022-08-27T19:41:39.470Z,29.70
2022-08-27T19:44:28.081Z,30.27
2022-08-27T19:47:21.440Z,25.40
2022-08-27T19:50:10.764Z,27.73
2022-08-27T19:52:59.432Z,30.37
2022-08-27T19:55:49.425Z,31.60
2022-08-27T19:58:38.056Z,31.50
2022-08-27T20:01:26.722Z,29.83
2022-08-27T20:04:15.724Z,33.60
2022-08-27T20:07:04.356Z,30.20
2022-08-27T20:09:52.932Z,32.27
2022-08-27T20:12:44.751Z,35.90
2022-08-27T20:15:34.087Z,31.60
2022-08-27T20:18:23.283Z,32.60
2022-08-27T20:21:12.159Z,29.70
2022-08-27T20:24:00.794Z,30.80
2022-08-27T20:26:49.386Z,30.53
2022-08-27T20:29:41.012Z,34.37
2022-08-27T20:32:30.231Z,31.03
2022-08-27T20:35:19.566Z,31.70
2022-08-27T20:38:08.265Z,30.83
2022-08-27T20:40:56.988Z,29.37
2022-08-27T20:43:45.775Z,32.10
2022-08-27T20:46:37.099Z,29.57
2022-08-27T20:49:27.840Z,32.90
2022-08-27T20:52:16.484Z,33.80
2022-08-27T20:55:06.473Z,30.13
2022-08-27T20:58:12.868Z,35.07
2022-08-27T21:01:02.520Z,28.20
2022-08-27T21:03:52.567Z,30.30
2022-08-27T21:06:41.211Z,30.50
2022-08-27T21:09:29.796Z,29.50
2022-08-27T21:12:22.610Z,28.27
2022-08-27T21:15:12.678Z,29.27
2022-08-27T21:18:01.273Z,26.77
2022-08-27T21:20:51.196Z,29.23
2022-08-27T21:23:40.450Z,29.80
2022-08-27T21:26:30.125Z,30.23
2022-08-27T21:29:19.496Z,31.03
2022-08-27T21:32:09.612Z,31.17
2022-08-27T21:34:58.168Z,29.77
2022-08-27T21:37:49.770Z,32.10
2022-08-27T21:40:38.516Z,27.20
2022-08-27T21:43:27.163Z,30.73
2022-08-27T21:46:15.931Z,30.60
2022-08-27T21:49:04.611Z,30.37
2022-08-27T21:51:53.145Z,29.90
2022-08-27T21:54:43.431Z,31.73
2022-08-27T21:57:32.015Z,29.50
2022-08-27T22:00:39.034Z,35.17
2022-08-27T22:03:27.783Z,28.60
2022-08-27T22:06:16.512Z,33.60
2022-08-27T22:09:05.209Z,29.20
2022-08-27T22:11:55.336Z,29.10
2022-08-27T22:14:43.972Z,30.53
2022-08-27T22:17:32.525Z,37.03
2022-08-27T22:20:21.527Z,29.50
2022-08-27T22:23:13.118Z,35.20
2022-08-27T22:26:01.661Z,28.23
2022-08-27T22:28:51.598Z,29.67
2022-08-27T22:31:40.538Z,27.83
2022-08-27T22:34:29.247Z,27.93
2022-08-27T22:37:17.784Z,29.03
2022-08-27T22:40:19.132Z,26.10
2022-08-27T22:43:09.130Z,26.40
2022-08-27T22:45:59.077Z,23.77
2022-08-27T22:48:47.567Z,24.27
2022-08-27T22:51:36.139Z,25.20
2022-08-27T22:54:24.791Z,26.07
2022-08-27T22:57:13.387Z,26.97
2022-08-27T23:00:02.085Z,26.20
2022-08-27T23:02:52.041Z,26.07
2022-08-27T23:05:42.070Z,27.57
2022-08-27T23:08:31.890Z,30.37
2022-08-27T23:11:20.883Z,26.43
2022-08-27T23:14:09.428Z,29.73
2022-08-27T23:16:58.035Z,26.90
2022-08-27T23:19:47.955Z,26.23
2022-08-27T23:22:37.168Z,22.63
2022-08-27T23:25:44.209Z,25.20
2022-08-27T23:28:32.824Z,24.97
2022-08-27T23:31:22.067Z,30.47
2022-08-27T23:34:10.639Z,28.90
2022-08-27T23:37:00.561Z,29.00
2022-08-27T23:39:49.508Z,27.30
2022-08-27T23:42:38.606Z,26.13
2022-08-27T23:45:27.771Z,25.53
2022-08-27T23:48:16.700Z,28.43
2022-08-27T23:51:05.315Z,30.83
2022-08-27T23:53:55.295Z,30.07
2022-08-27T23:56:43.912Z,27.33
2022-08-27T23:59:32.621Z,31.70
